sensor_id;sensor_type;location;lat;lon;timestamp;P1;durP1;ratioP1;P2;durP2;ratioP2
19739;SDS011;10027;51.066;13.768;2022-10-01T00:00:48;8.47;;;5.10;;
19739;SDS011;10027;51.066;13.768;2022-10-01T00:03:15;6.10;;;4.33;;
19739;SDS011;10027;51.066;13.768;2022-10-01T00:05:42;5.97;;;4.57;;
19739;SDS011;10027;51.066;13.768;2022-10-01T00:08:10;6.20;;;4.30;;
19739;SDS011;10027;51.066;13.768;2022-10-01T00:10:40;6.27;;;4.57;;
19739;SDS011;10027;51.066;13.768;2022-10-01T00:13:07;6.07;;;4.10;;
19739;SDS011;10027;51.066;13.768;2022-10-01T00:15:34;6.23;;;4.23;;
19739;SDS011;10027;51.066;13.768;2022-10-01T00:18:04;5.43;;;4.40;;
19739;SDS011;10027;51.066;13.768;2022-10-01T00:20:31;6.37;;;4.63;;
19739;SDS011;10027;51.066;13.768;2022-10-01T00:22:58;6.60;;;4.30;;
19739;SDS011;10027;51.066;13.768;2022-10-01T00:25:25;6.43;;;4.20;;
19739;SDS011;10027;51.066;13.768;2022-10-01T00:27:52;4.53;;;4.00;;
19739;SDS011;10027;51.066;13.768;2022-10-01T00:30:20;5.10;;;4.27;;
19739;SDS011;10027;51.066;13.768;2022-10-01T00:32:47;6.50;;;4.10;;
19739;SDS011;10027;51.066;13.768;2022-10-01T00:35:14;6.77;;;4.10;;
19739;SDS011;10027;51.066;13.768;2022-10-01T00:37:41;4.73;;;3.77;;
19739;SDS011;10027;51.066;13.768;2022-10-01T00:40:08;6.27;;;4.03;;
19739;SDS011;10027;51.066;13.768;2022-10-01T00:42:35;6.97;;;4.10;;
19739;SDS011;10027;51.066;13.768;2022-10-01T00:45:02;5.93;;;4.20;;
19739;SDS011;10027;51.066;13.768;2022-10-01T00:47:37;5.60;;;4.20;;
19739;SDS011;10027;51.066;13.768;2022-10-01T00:50:06;4.93;;;4.10;;
19739;SDS011;10027;51.066;13.768;2022-10-01T00:52:36;5.77;;;4.10;;
19739;SDS011;10027;51.066;13.768;2022-10-01T00:58:08;5.97;;;4.07;;
19739;SDS011;10027;51.066;13.768;2022-10-01T01:00:36;5.30;;;4.40;;
19739;SDS011;10027;51.066;13.768;2022-10-01T01:03:03;5.93;;;4.53;;
19739;SDS011;10027;51.066;13.768;2022-10-01T01:05:31;4.93;;;3.93;;
19739;SDS011;10027;51.066;13.768;2022-10-01T01:07:58;4.77;;;3.90;;
19739;SDS011;10027;51.066;13.768;2022-10-01T01:29:11;4.20;;;3.50;;
19739;SDS011;10027;51.066;13.768;2022-10-01T01:31:43;5.67;;;3.93;;
19739;SDS011;10027;51.066;13.768;2022-10-01T01:34:12;5.97;;;4.10;;
19739;SDS011;10027;51.066;13.768;2022-10-01T01:36:42;6.70;;;4.40;;
19739;SDS011;10027;51.066;13.768;2022-10-01T01:39:11;5.47;;;4.00;;
19739;SDS011;10027;51.066;13.768;2022-10-01T01:41:40;5.90;;;3.83;;
19739;SDS011;10027;51.066;13.768;2022-10-01T01:44:09;5.30;;;4.10;;
19739;SDS011;10027;51.066;13.768;2022-10-01T01:46:38;7.30;;;3.90;;
19739;SDS011;10027;51.066;13.768;2022-10-01T01:49:06;7.40;;;3.80;;
19739;SDS011;10027;51.066;13.768;2022-10-01T01:51:41;5.17;;;3.70;;
19739;SDS011;10027;51.066;13.768;2022-10-01T01:54:09;5.90;;;4.10;;
19739;SDS011;10027;51.066;13.768;2022-10-01T01:56:36;5.37;;;3.67;;
19739;SDS011;10027;51.066;13.768;2022-10-01T01:59:04;4.57;;;3.80;;
19739;SDS011;10027;51.066;13.768;2022-10-01T02:04:14;8.27;;;3.97;;
19739;SDS011;10027;51.066;13.768;2022-10-01T02:11:48;7.37;;;3.90;;
19739;SDS011;10027;51.066;13.768;2022-10-01T02:14:30;6.13;;;3.67;;
19739;SDS011;10027;51.066;13.768;2022-10-01T02:17:04;5.63;;;3.77;;
19739;SDS011;10027;51.066;13.768;2022-10-01T02:19:40;5.43;;;4.10;;
19739;SDS011;10027;51.066;13.768;2022-10-01T02:24:38;4.60;;;3.77;;
19739;SDS011;10027;51.066;13.768;2022-10-01T02:27:11;5.03;;;3.73;;
19739;SDS011;10027;51.066;13.768;2022-10-01T02:29:39;11.00;;;4.27;;
19739;SDS011;10027;51.066;13.768;2022-10-01T02:32:07;5.60;;;4.40;;
19739;SDS011;10027;51.066;13.768;2022-10-01T02:34:35;6.00;;;4.03;;
19739;SDS011;10027;51.066;13.768;2022-10-01T02:37:02;4.83;;;3.90;;
19739;SDS011;10027;51.066;13.768;2022-10-01T02:39:31;7.40;;;4.40;;
19739;SDS011;10027;51.066;13.768;2022-10-01T02:41:58;6.03;;;3.70;;
19739;SDS011;10027;51.066;13.768;2022-10-01T02:44:27;11.07;;;4.10;;
19739;SDS011;10027;51.066;13.768;2022-10-01T02:46:58;7.63;;;4.37;;
19739;SDS011;10027;51.066;13.768;2022-10-01T02:49:26;5.77;;;4.00;;
19739;SDS011;10027;51.066;13.768;2022-10-01T02:52:11;5.77;;;4.20;;
19739;SDS011;10027;51.066;13.768;2022-10-01T02:55:27;5.47;;;4.17;;
19739;SDS011;10027;51.066;13.768;2022-10-01T02:57:27;7.97;;;4.37;;
19739;SDS011;10027;51.066;13.768;2022-10-01T03:00:09;5.80;;;4.10;;
19739;SDS011;10027;51.066;13.768;2022-10-01T03:02:36;5.83;;;4.20;;
19739;SDS011;10027;51.066;13.768;2022-10-01T03:05:04;6.93;;;4.23;;
19739;SDS011;10027;51.066;13.768;2022-10-01T03:07:31;5.27;;;4.03;;
19739;SDS011;10027;51.066;13.768;2022-10-01T03:10:03;8.83;;;4.27;;
19739;SDS011;10027;51.066;13.768;2022-10-01T03:12:31;7.67;;;4.57;;
19739;SDS011;10027;51.066;13.768;2022-10-01T03:14:58;5.73;;;4.00;;
19739;SDS011;10027;51.066;13.768;2022-10-01T03:17:25;6.20;;;4.33;;
19739;SDS011;10027;51.066;13.768;2022-10-01T03:19:52;5.07;;;4.10;;
19739;SDS011;10027;51.066;13.768;2022-10-01T03:22:20;6.17;;;4.37;;
19739;SDS011;10027;51.066;13.768;2022-10-01T03:24:50;5.23;;;4.27;;
19739;SDS011;10027;51.066;13.768;2022-10-01T03:27:19;5.10;;;4.07;;
19739;SDS011;10027;51.066;13.768;2022-10-01T03:29:46;5.70;;;4.63;;
19739;SDS011;10027;51.066;13.768;2022-10-01T03:32:13;5.37;;;4.13;;
19739;SDS011;10027;51.066;13.768;2022-10-01T03:34:41;8.47;;;4.47;;
19739;SDS011;10027;51.066;13.768;2022-10-01T03:37:08;8.20;;;4.20;;
19739;SDS011;10027;51.066;13.768;2022-10-01T03:39:35;4.97;;;3.93;;
19739;SDS011;10027;51.066;13.768;2022-10-01T03:42:02;5.73;;;4.23;;
19739;SDS011;10027;51.066;13.768;2022-10-01T03:44:31;5.20;;;4.10;;
19739;SDS011;10027;51.066;13.768;2022-10-01T03:46:58;5.03;;;3.63;;
19739;SDS011;10027;51.066;13.768;2022-10-01T03:49:25;5.60;;;3.70;;
19739;SDS011;10027;51.066;13.768;2022-10-01T03:51:53;7.17;;;3.90;;
19739;SDS011;10027;51.066;13.768;2022-10-01T03:54:20;5.77;;;4.20;;
19739;SDS011;10027;51.066;13.768;2022-10-01T03:56:47;7.50;;;4.30;;
19739;SDS011;10027;51.066;13.768;2022-10-01T03:59:14;7.17;;;4.80;;
19739;SDS011;10027;51.066;13.768;2022-10-01T04:01:41;6.57;;;4.67;;
19739;SDS011;10027;51.066;13.768;2022-10-01T04:04:08;7.27;;;4.97;;
19739;SDS011;10027;51.066;13.768;2022-10-01T04:06:36;7.67;;;5.20;;
19739;SDS011;10027;51.066;13.768;2022-10-01T04:09:03;6.30;;;4.90;;
19739;SDS011;10027;51.066;13.768;2022-10-01T04:11:30;6.13;;;4.50;;
19739;SDS011;10027;51.066;13.768;2022-10-01T04:13:57;5.83;;;4.70;;
19739;SDS011;10027;51.066;13.768;2022-10-01T04:16:24;7.27;;;4.70;;
19739;SDS011;10027;51.066;13.768;2022-10-01T04:18:52;10.40;;;4.37;;
19739;SDS011;10027;51.066;13.768;2022-10-01T04:21:19;5.50;;;4.20;;
19739;SDS011;10027;51.066;13.768;2022-10-01T04:23:46;5.33;;;4.23;;
19739;SDS011;10027;51.066;13.768;2022-10-01T04:26:14;6.83;;;4.63;;
19739;SDS011;10027;51.066;13.768;2022-10-01T04:28:43;6.77;;;4.47;;
19739;SDS011;10027;51.066;13.768;2022-10-01T04:31:12;5.80;;;4.30;;
19739;SDS011;10027;51.066;13.768;2022-10-01T04:33:52;7.20;;;4.73;;
19739;SDS011;10027;51.066;13.768;2022-10-01T04:36:20;5.50;;;4.33;;
19739;SDS011;10027;51.066;13.768;2022-10-01T04:38:51;5.80;;;4.60;;
19739;SDS011;10027;51.066;13.768;2022-10-01T04:41:24;8.80;;;4.80;;
19739;SDS011;10027;51.066;13.768;2022-10-01T04:43:51;6.57;;;4.57;;
19739;SDS011;10027;51.066;13.768;2022-10-01T04:46:18;6.17;;;4.67;;
19739;SDS011;10027;51.066;13.768;2022-10-01T04:48:47;6.23;;;4.47;;
19739;SDS011;10027;51.066;13.768;2022-10-01T04:51:15;5.70;;;4.57;;
19739;SDS011;10027;51.066;13.768;2022-10-01T04:53:42;5.80;;;4.37;;
19739;SDS011;10027;51.066;13.768;2022-10-01T04:56:09;5.70;;;3.97;;
19739;SDS011;10027;51.066;13.768;2022-10-01T04:58:36;6.90;;;3.90;;
19739;SDS011;10027;51.066;13.768;2022-10-01T05:01:03;5.23;;;4.27;;
19739;SDS011;10027;51.066;13.768;2022-10-01T05:03:30;7.83;;;4.70;;
19739;SDS011;10027;51.066;13.768;2022-10-01T05:05:57;6.83;;;4.60;;
19739;SDS011;10027;51.066;13.768;2022-10-01T05:08:24;7.73;;;4.53;;
19739;SDS011;10027;51.066;13.768;2022-10-01T05:10:52;7.60;;;4.60;;
19739;SDS011;10027;51.066;13.768;2022-10-01T05:13:19;7.10;;;4.87;;
19739;SDS011;10027;51.066;13.768;2022-10-01T05:15:49;6.87;;;4.97;;
19739;SDS011;10027;51.066;13.768;2022-10-01T05:18:17;6.37;;;4.83;;
19739;SDS011;10027;51.066;13.768;2022-10-01T05:20:44;8.60;;;5.13;;
19739;SDS011;10027;51.066;13.768;2022-10-01T05:23:11;5.87;;;4.70;;
19739;SDS011;10027;51.066;13.768;2022-10-01T05:25:39;6.33;;;4.63;;
19739;SDS011;10027;51.066;13.768;2022-10-01T05:28:06;6.30;;;4.73;;
19739;SDS011;10027;51.066;13.768;2022-10-01T05:30:33;7.17;;;4.80;;
19739;SDS011;10027;51.066;13.768;2022-10-01T05:33:01;7.17;;;4.83;;
19739;SDS011;10027;51.066;13.768;2022-10-01T05:35:28;7.17;;;4.97;;
19739;SDS011;10027;51.066;13.768;2022-10-01T05:37:56;7.73;;;4.83;;
19739;SDS011;10027;51.066;13.768;2022-10-01T05:40:24;7.13;;;4.70;;
19739;SDS011;10027;51.066;13.768;2022-10-01T05:42:54;8.17;;;4.97;;
19739;SDS011;10027;51.066;13.768;2022-10-01T05:45:21;6.47;;;4.67;;
19739;SDS011;10027;51.066;13.768;2022-10-01T05:48:02;7.07;;;4.80;;
19739;SDS011;10027;51.066;13.768;2022-10-01T05:50:29;7.03;;;5.30;;
19739;SDS011;10027;51.066;13.768;2022-10-01T05:52:57;7.77;;;5.13;;
19739;SDS011;10027;51.066;13.768;2022-10-01T05:55:25;7.33;;;5.03;;
19739;SDS011;10027;51.066;13.768;2022-10-01T05:58:02;7.00;;;5.13;;
19739;SDS011;10027;51.066;13.768;2022-10-01T06:00:30;7.53;;;5.17;;
19739;SDS011;10027;51.066;13.768;2022-10-01T06:02:58;6.57;;;5.00;;
19739;SDS011;10027;51.066;13.768;2022-10-01T06:05:26;6.77;;;5.27;;
19739;SDS011;10027;51.066;13.768;2022-10-01T06:07:53;9.17;;;5.73;;
19739;SDS011;10027;51.066;13.768;2022-10-01T06:10:21;8.77;;;5.70;;
19739;SDS011;10027;51.066;13.768;2022-10-01T06:12:49;6.87;;;5.33;;
19739;SDS011;10027;51.066;13.768;2022-10-01T06:15:16;7.97;;;5.77;;
19739;SDS011;10027;51.066;13.768;2022-10-01T06:17:43;9.13;;;5.40;;
19739;SDS011;10027;51.066;13.768;2022-10-01T06:20:11;8.10;;;5.07;;
19739;SDS011;10027;51.066;13.768;2022-10-01T06:22:39;8.60;;;5.93;;
19739;SDS011;10027;51.066;13.768;2022-10-01T06:25:08;9.00;;;5.57;;
19739;SDS011;10027;51.066;13.768;2022-10-01T06:27:35;7.90;;;5.67;;
19739;SDS011;10027;51.066;13.768;2022-10-01T06:30:03;8.33;;;5.70;;
19739;SDS011;10027;51.066;13.768;2022-10-01T06:32:30;7.63;;;5.50;;
19739;SDS011;10027;51.066;13.768;2022-10-01T06:35:00;7.50;;;5.60;;
19739;SDS011;10027;51.066;13.768;2022-10-01T06:37:27;7.43;;;5.47;;
19739;SDS011;10027;51.066;13.768;2022-10-01T06:39:54;8.23;;;5.70;;
19739;SDS011;10027;51.066;13.768;2022-10-01T06:42:22;8.03;;;5.67;;
19739;SDS011;10027;51.066;13.768;2022-10-01T06:44:49;7.30;;;5.63;;
19739;SDS011;10027;51.066;13.768;2022-10-01T06:47:16;8.10;;;5.63;;
19739;SDS011;10027;51.066;13.768;2022-10-01T06:49:43;9.33;;;5.43;;
19739;SDS011;10027;51.066;13.768;2022-10-01T06:52:13;9.03;;;5.97;;
19739;SDS011;10027;51.066;13.768;2022-10-01T06:54:59;9.27;;;6.03;;
19739;SDS011;10027;51.066;13.768;2022-10-01T06:57:26;10.63;;;5.80;;
19739;SDS011;10027;51.066;13.768;2022-10-01T06:59:54;12.37;;;6.20;;
19739;SDS011;10027;51.066;13.768;2022-10-01T07:02:25;8.47;;;6.03;;
19739;SDS011;10027;51.066;13.768;2022-10-01T07:04:55;12.63;;;5.63;;
19739;SDS011;10027;51.066;13.768;2022-10-01T07:07:30;8.57;;;5.97;;
19739;SDS011;10027;51.066;13.768;2022-10-01T07:09:58;8.17;;;5.60;;
19739;SDS011;10027;51.066;13.768;2022-10-01T07:12:25;7.73;;;5.67;;
19739;SDS011;10027;51.066;13.768;2022-10-01T07:14:53;8.23;;;5.83;;
19739;SDS011;10027;51.066;13.768;2022-10-01T07:17:20;8.73;;;5.67;;
19739;SDS011;10027;51.066;13.768;2022-10-01T07:19:47;8.07;;;5.53;;
19739;SDS011;10027;51.066;13.768;2022-10-01T07:22:14;11.47;;;5.80;;
19739;SDS011;10027;51.066;13.768;2022-10-01T07:24:43;9.30;;;5.80;;
19739;SDS011;10027;51.066;13.768;2022-10-01T07:27:10;8.03;;;5.80;;
19739;SDS011;10027;51.066;13.768;2022-10-01T07:29:37;8.27;;;5.53;;
19739;SDS011;10027;51.066;13.768;2022-10-01T07:32:05;7.30;;;5.23;;
19739;SDS011;10027;51.066;13.768;2022-10-01T07:34:35;8.40;;;5.53;;
19739;SDS011;10027;51.066;13.768;2022-10-01T07:37:03;8.63;;;5.50;;
19739;SDS011;10027;51.066;13.768;2022-10-01T07:39:30;5.83;;;4.73;;
19739;SDS011;10027;51.066;13.768;2022-10-01T07:41:57;8.47;;;5.27;;
19739;SDS011;10027;51.066;13.768;2022-10-01T07:44:24;7.83;;;4.97;;
19739;SDS011;10027;51.066;13.768;2022-10-01T07:46:54;9.00;;;5.00;;
19739;SDS011;10027;51.066;13.768;2022-10-01T07:49:22;8.53;;;5.20;;
19739;SDS011;10027;51.066;13.768;2022-10-01T07:51:50;6.07;;;4.70;;
19739;SDS011;10027;51.066;13.768;2022-10-01T07:54:20;8.53;;;5.00;;
19739;SDS011;10027;51.066;13.768;2022-10-01T07:56:47;6.43;;;4.50;;
19739;SDS011;10027;51.066;13.768;2022-10-01T07:59:17;6.70;;;4.90;;
19739;SDS011;10027;51.066;13.768;2022-10-01T08:01:47;7.93;;;4.87;;
19739;SDS011;10027;51.066;13.768;2022-10-01T08:04:14;6.13;;;4.43;;
19739;SDS011;10027;51.066;13.768;2022-10-01T08:07:00;10.03;;;4.17;;
19739;SDS011;10027;51.066;13.768;2022-10-01T08:09:28;8.00;;;5.40;;
19739;SDS011;10027;51.066;13.768;2022-10-01T08:11:55;6.57;;;4.93;;
19739;SDS011;10027;51.066;13.768;2022-10-01T08:14:22;5.67;;;4.47;;
19739;SDS011;10027;51.066;13.768;2022-10-01T08:16:49;6.63;;;4.67;;
19739;SDS011;10027;51.066;13.768;2022-10-01T08:19:16;8.73;;;5.40;;
19739;SDS011;10027;51.066;13.768;2022-10-01T08:21:43;7.27;;;4.67;;
19739;SDS011;10027;51.066;13.768;2022-10-01T08:24:10;6.73;;;4.47;;
19739;SDS011;10027;51.066;13.768;2022-10-01T08:26:37;4.93;;;4.10;;
19739;SDS011;10027;51.066;13.768;2022-10-01T08:29:05;7.07;;;4.23;;
19739;SDS011;10027;51.066;13.768;2022-10-01T08:31:32;5.63;;;4.17;;
19739;SDS011;10027;51.066;13.768;2022-10-01T08:34:00;5.97;;;3.60;;
19739;SDS011;10027;51.066;13.768;2022-10-01T08:36:27;5.87;;;4.10;;
19739;SDS011;10027;51.066;13.768;2022-10-01T08:38:55;6.00;;;3.60;;
19739;SDS011;10027;51.066;13.768;2022-10-01T08:43:56;5.53;;;3.60;;
19739;SDS011;10027;51.066;13.768;2022-10-01T08:46:25;6.07;;;3.90;;
19739;SDS011;10027;51.066;13.768;2022-10-01T08:54:15;7.23;;;4.60;;
19739;SDS011;10027;51.066;13.768;2022-10-01T08:56:44;6.57;;;4.07;;
19739;SDS011;10027;51.066;13.768;2022-10-01T08:59:19;5.63;;;4.10;;
19739;SDS011;10027;51.066;13.768;2022-10-01T09:01:53;5.10;;;4.07;;
19739;SDS011;10027;51.066;13.768;2022-10-01T09:04:21;6.43;;;4.17;;
19739;SDS011;10027;51.066;13.768;2022-10-01T09:06:49;5.97;;;4.23;;
19739;SDS011;10027;51.066;13.768;2022-10-01T09:11:56;7.07;;;4.20;;
19739;SDS011;10027;51.066;13.768;2022-10-01T09:19:28;5.63;;;4.17;;
19739;SDS011;10027;51.066;13.768;2022-10-01T09:22:06;6.03;;;3.93;;
19739;SDS011;10027;51.066;13.768;2022-10-01T09:24:42;6.00;;;4.17;;
19739;SDS011;10027;51.066;13.768;2022-10-01T09:27:12;5.73;;;4.13;;
19739;SDS011;10027;51.066;13.768;2022-10-01T09:29:50;6.00;;;4.30;;
19739;SDS011;10027;51.066;13.768;2022-10-01T09:32:19;4.73;;;3.90;;
19739;SDS011;10027;51.066;13.768;2022-10-01T09:34:48;5.90;;;4.20;;
19739;SDS011;10027;51.066;13.768;2022-10-01T09:37:20;6.80;;;4.13;;
19739;SDS011;10027;51.066;13.768;2022-10-01T09:42:19;5.20;;;4.10;;
19739;SDS011;10027;51.066;13.768;2022-10-01T09:44:46;5.27;;;3.87;;
19739;SDS011;10027;51.066;13.768;2022-10-01T09:47:17;5.77;;;4.27;;
19739;SDS011;10027;51.066;13.768;2022-10-01T09:49:45;6.33;;;4.17;;
19739;SDS011;10027;51.066;13.768;2022-10-01T09:52:25;4.63;;;3.70;;
19739;SDS011;10027;51.066;13.768;2022-10-01T10:02:31;5.63;;;3.60;;
19739;SDS011;10027;51.066;13.768;2022-10-01T10:05:02;5.40;;;3.87;;
19739;SDS011;10027;51.066;13.768;2022-10-01T10:07:29;4.60;;;3.87;;
19739;SDS011;10027;51.066;13.768;2022-10-01T10:10:07;6.37;;;3.73;;
19739;SDS011;10027;51.066;13.768;2022-10-01T10:12:34;5.00;;;3.90;;
19739;SDS011;10027;51.066;13.768;2022-10-01T10:15:05;6.80;;;3.67;;
19739;SDS011;10027;51.066;13.768;2022-10-01T10:17:33;5.10;;;3.53;;
19739;SDS011;10027;51.066;13.768;2022-10-01T10:20:07;4.57;;;3.50;;
19739;SDS011;10027;51.066;13.768;2022-10-01T10:22:36;7.73;;;3.77;;
19739;SDS011;10027;51.066;13.768;2022-10-01T10:25:15;4.07;;;3.50;;
19739;SDS011;10027;51.066;13.768;2022-10-01T10:28:03;6.20;;;3.50;;
19739;SDS011;10027;51.066;13.768;2022-10-01T10:30:32;4.63;;;3.50;;
19739;SDS011;10027;51.066;13.768;2022-10-01T10:33:03;6.07;;;2.87;;
19739;SDS011;10027;51.066;13.768;2022-10-01T10:35:31;4.37;;;2.53;;
19739;SDS011;10027;51.066;13.768;2022-10-01T10:37:58;3.20;;;2.30;;
19739;SDS011;10027;51.066;13.768;2022-10-01T10:40:28;2.83;;;2.20;;
19739;SDS011;10027;51.066;13.768;2022-10-01T10:42:57;3.03;;;2.10;;
19739;SDS011;10027;51.066;13.768;2022-10-01T10:45:28;2.70;;;2.30;;
19739;SDS011;10027;51.066;13.768;2022-10-01T10:47:55;3.17;;;2.37;;
19739;SDS011;10027;51.066;13.768;2022-10-01T10:50:30;2.77;;;2.20;;
19739;SDS011;10027;51.066;13.768;2022-10-01T10:52:58;3.17;;;2.00;;
19739;SDS011;10027;51.066;13.768;2022-10-01T10:57:52;3.27;;;2.20;;
19739;SDS011;10027;51.066;13.768;2022-10-01T11:00:23;3.50;;;2.00;;
19739;SDS011;10027;51.066;13.768;2022-10-01T11:05:19;2.40;;;2.20;;
19739;SDS011;10027;51.066;13.768;2022-10-01T11:07:47;2.80;;;2.27;;
19739;SDS011;10027;51.066;13.768;2022-10-01T11:17:55;3.17;;;2.37;;
19739;SDS011;10027;51.066;13.768;2022-10-01T11:23:51;3.17;;;2.30;;
19739;SDS011;10027;51.066;13.768;2022-10-01T11:28:42;3.43;;;2.40;;
19739;SDS011;10027;51.066;13.768;2022-10-01T11:31:21;2.40;;;2.20;;
19739;SDS011;10027;51.066;13.768;2022-10-01T11:36:51;4.23;;;2.60;;
19739;SDS011;10027;51.066;13.768;2022-10-01T11:39:21;3.17;;;2.83;;
19739;SDS011;10027;51.066;13.768;2022-10-01T11:41:49;2.73;;;2.43;;
19739;SDS011;10027;51.066;13.768;2022-10-01T11:47:35;3.17;;;2.30;;
19739;SDS011;10027;51.066;13.768;2022-10-01T11:50:12;6.40;;;2.97;;
19739;SDS011;10027;51.066;13.768;2022-10-01T12:01:15;2.70;;;2.30;;
19739;SDS011;10027;51.066;13.768;2022-10-01T12:03:47;3.37;;;2.60;;
19739;SDS011;10027;51.066;13.768;2022-10-01T12:06:16;2.80;;;2.30;;
19739;SDS011;10027;51.066;13.768;2022-10-01T12:08:52;4.60;;;2.40;;
19739;SDS011;10027;51.066;13.768;2022-10-01T12:11:25;3.30;;;2.60;;
19739;SDS011;10027;51.066;13.768;2022-10-01T12:13:59;3.70;;;2.43;;
19739;SDS011;10027;51.066;13.768;2022-10-01T12:19:11;2.27;;;1.97;;
19739;SDS011;10027;51.066;13.768;2022-10-01T12:21:43;3.13;;;1.80;;
19739;SDS011;10027;51.066;13.768;2022-10-01T12:24:15;2.80;;;1.83;;
19739;SDS011;10027;51.066;13.768;2022-10-01T12:31:47;2.73;;;1.17;;
19739;SDS011;10027;51.066;13.768;2022-10-01T12:41:51;2.20;;;1.23;;
19739;SDS011;10027;51.066;13.768;2022-10-01T12:57:11;4.13;;;1.70;;
19739;SDS011;10027;51.066;13.768;2022-10-01T13:02:43;3.17;;;2.17;;
19739;SDS011;10027;51.066;13.768;2022-10-01T13:13:15;2.83;;;1.87;;
19739;SDS011;10027;51.066;13.768;2022-10-01T13:15:43;2.37;;;1.70;;
19739;SDS011;10027;51.066;13.768;2022-10-01T13:23:48;2.63;;;1.67;;
19739;SDS011;10027;51.066;13.768;2022-10-01T13:26:21;2.80;;;1.63;;
19739;SDS011;10027;51.066;13.768;2022-10-01T13:31:37;3.83;;;1.73;;
19739;SDS011;10027;51.066;13.768;2022-10-01T13:34:22;2.03;;;1.83;;
19739;SDS011;10027;51.066;13.768;2022-10-01T13:36:50;1.97;;;1.60;;
19739;SDS011;10027;51.066;13.768;2022-10-01T13:39:22;3.60;;;1.80;;
19739;SDS011;10027;51.066;13.768;2022-10-01T13:41:51;1.70;;;1.60;;
19739;SDS011;10027;51.066;13.768;2022-10-01T13:44:22;4.10;;;1.80;;
19739;SDS011;10027;51.066;13.768;2022-10-01T13:46:53;3.30;;;1.80;;
19739;SDS011;10027;51.066;13.768;2022-10-01T13:49:25;1.93;;;1.80;;
19739;SDS011;10027;51.066;13.768;2022-10-01T13:51:53;2.40;;;1.83;;
19739;SDS011;10027;51.066;13.768;2022-10-01T13:55:06;2.37;;;1.90;;
19739;SDS011;10027;51.066;13.768;2022-10-01T13:59:35;3.07;;;2.10;;
19739;SDS011;10027;51.066;13.768;2022-10-01T14:02:19;3.30;;;1.93;;
19739;SDS011;10027;51.066;13.768;2022-10-01T14:04:49;2.27;;;2.07;;
19739;SDS011;10027;51.066;13.768;2022-10-01T14:07:18;2.37;;;1.90;;
19739;SDS011;10027;51.066;13.768;2022-10-01T14:09:47;3.13;;;2.00;;
19739;SDS011;10027;51.066;13.768;2022-10-01T14:12:17;1.70;;;1.60;;
19739;SDS011;10027;51.066;13.768;2022-10-01T14:15:23;3.83;;;2.03;;
19739;SDS011;10027;51.066;13.768;2022-10-01T14:18:14;2.07;;;1.83;;
19739;SDS011;10027;51.066;13.768;2022-10-01T14:20:49;3.00;;;1.90;;
19739;SDS011;10027;51.066;13.768;2022-10-01T14:23:20;1.83;;;1.57;;
19739;SDS011;10027;51.066;13.768;2022-10-01T14:36:28;1.57;;;1.20;;
19739;SDS011;10027;51.066;13.768;2022-10-01T14:41:40;2.43;;;1.63;;
19739;SDS011;10027;51.066;13.768;2022-10-01T14:44:17;4.63;;;1.63;;
19739;SDS011;10027;51.066;13.768;2022-10-01T14:46:46;1.60;;;1.00;;
19739;SDS011;10027;51.066;13.768;2022-10-01T14:49:18;1.97;;;1.30;;
19739;SDS011;10027;51.066;13.768;2022-10-01T14:51:49;1.50;;;1.30;;
19739;SDS011;10027;51.066;13.768;2022-10-01T14:54:16;1.63;;;1.53;;
19739;SDS011;10027;51.066;13.768;2022-10-01T14:56:43;2.67;;;1.10;;
19739;SDS011;10027;51.066;13.768;2022-10-01T14:59:15;1.50;;;1.40;;
19739;SDS011;10027;51.066;13.768;2022-10-01T15:01:52;1.97;;;0.87;;
19739;SDS011;10027;51.066;13.768;2022-10-01T15:04:20;1.03;;;0.70;;
19739;SDS011;10027;51.066;13.768;2022-10-01T15:06:47;1.63;;;1.00;;
19739;SDS011;10027;51.066;13.768;2022-10-01T15:09:15;0.60;;;0.60;;
19739;SDS011;10027;51.066;13.768;2022-10-01T15:11:45;0.83;;;0.50;;
19739;SDS011;10027;51.066;13.768;2022-10-01T15:14:14;0.60;;;0.50;;
19739;SDS011;10027;51.066;13.768;2022-10-01T15:16:42;1.47;;;0.50;;
19739;SDS011;10027;51.066;13.768;2022-10-01T15:19:11;0.50;;;0.50;;
19739;SDS011;10027;51.066;13.768;2022-10-01T15:21:51;1.03;;;0.60;;
19739;SDS011;10027;51.066;13.768;2022-10-01T15:24:21;0.77;;;0.50;;
19739;SDS011;10027;51.066;13.768;2022-10-01T15:26:50;1.07;;;0.53;;
19739;SDS011;10027;51.066;13.768;2022-10-01T15:29:18;0.60;;;0.60;;
19739;SDS011;10027;51.066;13.768;2022-10-01T15:31:45;0.57;;;0.57;;
19739;SDS011;10027;51.066;13.768;2022-10-01T15:34:15;0.80;;;0.40;;
19739;SDS011;10027;51.066;13.768;2022-10-01T15:36:42;0.40;;;0.40;;
19739;SDS011;10027;51.066;13.768;2022-10-01T15:41:55;1.27;;;0.50;;
19739;SDS011;10027;51.066;13.768;2022-10-01T15:47:14;0.60;;;0.60;;
19739;SDS011;10027;51.066;13.768;2022-10-01T15:49:41;0.97;;;0.67;;
19739;SDS011;10027;51.066;13.768;2022-10-01T15:52:26;0.70;;;0.67;;
19739;SDS011;10027;51.066;13.768;2022-10-01T15:55:12;0.40;;;0.40;;
19739;SDS011;10027;51.066;13.768;2022-10-01T15:57:43;0.93;;;0.60;;
19739;SDS011;10027;51.066;13.768;2022-10-01T16:00:26;0.77;;;0.60;;
19739;SDS011;10027;51.066;13.768;2022-10-01T16:02:54;1.37;;;0.57;;
19739;SDS011;10027;51.066;13.768;2022-10-01T16:05:27;0.50;;;0.50;;
19739;SDS011;10027;51.066;13.768;2022-10-01T16:07:57;0.93;;;0.57;;
19739;SDS011;10027;51.066;13.768;2022-10-01T16:12:51;0.60;;;0.60;;
19739;SDS011;10027;51.066;13.768;2022-10-01T16:17:58;1.10;;;0.73;;
19739;SDS011;10027;51.066;13.768;2022-10-01T16:20:31;0.50;;;0.50;;
19739;SDS011;10027;51.066;13.768;2022-10-01T16:25:45;0.90;;;0.70;;
19739;SDS011;10027;51.066;13.768;2022-10-01T16:28:21;1.20;;;0.70;;
19739;SDS011;10027;51.066;13.768;2022-10-01T16:30:51;0.80;;;0.60;;
19739;SDS011;10027;51.066;13.768;2022-10-01T16:33:18;0.77;;;0.77;;
19739;SDS011;10027;51.066;13.768;2022-10-01T16:35:48;0.80;;;0.80;;
19739;SDS011;10027;51.066;13.768;2022-10-01T16:38:15;0.67;;;0.60;;
19739;SDS011;10027;51.066;13.768;2022-10-01T16:40:42;1.33;;;0.70;;
19739;SDS011;10027;51.066;13.768;2022-10-01T16:43:13;1.73;;;0.70;;
19739;SDS011;10027;51.066;13.768;2022-10-01T16:45:42;0.83;;;0.83;;
19739;SDS011;10027;51.066;13.768;2022-10-01T16:48:13;1.20;;;0.60;;
19739;SDS011;10027;51.066;13.768;2022-10-01T16:50:41;0.93;;;0.70;;
19739;SDS011;10027;51.066;13.768;2022-10-01T16:53:12;0.90;;;0.60;;
19739;SDS011;10027;51.066;13.768;2022-10-01T16:55:40;2.33;;;0.70;;
19739;SDS011;10027;51.066;13.768;2022-10-01T16:58:07;0.83;;;0.70;;
19739;SDS011;10027;51.066;13.768;2022-10-01T17:00:35;1.23;;;0.90;;
19739;SDS011;10027;51.066;13.768;2022-10-01T17:03:03;1.20;;;1.00;;
19739;SDS011;10027;51.066;13.768;2022-10-01T17:05:31;1.50;;;1.20;;
19739;SDS011;10027;51.066;13.768;2022-10-01T17:08:00;1.97;;;1.50;;
19739;SDS011;10027;51.066;13.768;2022-10-01T17:10:29;2.30;;;1.67;;
19739;SDS011;10027;51.066;13.768;2022-10-01T17:12:57;2.37;;;1.77;;
19739;SDS011;10027;51.066;13.768;2022-10-01T17:15:25;1.63;;;1.10;;
19739;SDS011;10027;51.066;13.768;2022-10-01T17:17:53;1.80;;;1.00;;
19739;SDS011;10027;51.066;13.768;2022-10-01T17:20:21;0.90;;;0.80;;
19739;SDS011;10027;51.066;13.768;2022-10-01T17:22:48;1.00;;;0.90;;
19739;SDS011;10027;51.066;13.768;2022-10-01T17:25:16;1.83;;;0.70;;
19739;SDS011;10027;51.066;13.768;2022-10-01T17:27:43;0.90;;;0.80;;
19739;SDS011;10027;51.066;13.768;2022-10-01T17:30:11;2.00;;;1.50;;
19739;SDS011;10027;51.066;13.768;2022-10-01T17:32:38;2.43;;;1.70;;
19739;SDS011;10027;51.066;13.768;2022-10-01T17:35:06;3.40;;;2.50;;